METAR Data
IDs: Format: Raw Decoded Include TAF

Data at: 0125 UTC 06 Dec 2019

KFDW 060115Z AUTO 00000KT 10SM CLR 08/00 A3017 RMK AO1
KFDW 060055Z AUTO 14004KT 10SM CLR 08/00 A3017 RMK AO1
KFDW 060035Z AUTO 15004KT 10SM CLR 09/00 A3016 RMK AO1
KFDW 060015Z AUTO 00000KT 10SM CLR 10/00 A3016 RMK AO1
KFDW 052355Z AUTO 00000KT 10SM CLR 10/00 A3015 RMK AO1
KFDW 052335Z AUTO 00000KT 10SM CLR 10/00 A3015 RMK AO1
KFDW 052315Z AUTO 00000KT 10SM CLR 11/01 A3014 RMK AO1
KFDW 052255Z AUTO 00000KT 10SM CLR 11/01 A3013 RMK AO1
KFDW 052235Z AUTO 00000KT 10SM CLR 12/01 A3013 RMK AO1
KFDW 052215Z AUTO 00000KT 10SM CLR 13/00 A3011 RMK AO1
KFDW 052155Z AUTO 00000KT 10SM CLR 16/M01 A3011 RMK AO1
KFDW 052135Z AUTO 00000KT 10SM CLR 16/M02 A3010 RMK AO1
KFDW 052115Z AUTO 00000KT 10SM CLR 16/M03 A3010 RMK AO1
KFDW 052055Z AUTO 00000KT 10SM CLR 16/M03 A3009 RMK AO1
KFDW 052035Z AUTO 00000KT 10SM CLR 16/M02 A3009 RMK AO1
KFDW 052015Z AUTO 32003KT 10SM CLR 16/M01 A3008 RMK AO1
KFDW 051955Z AUTO 21004KT 10SM CLR 17/00 A3008 RMK AO1
KFDW 051935Z AUTO 33004KT 10SM CLR 16/M01 A3008 RMK AO1
KFDW 051915Z AUTO 00000KT 10SM CLR 17/M01 A3008 RMK AO1
KFDW 051855Z AUTO 25003KT 10SM CLR 16/M01 A3008 RMK AO1
KFDW 051835Z AUTO 00000KT 10SM CLR 16/M01 A3009 RMK AO1
KFDW 051815Z AUTO 26003KT 10SM CLR 16/M01 A3009 RMK AO1
KFDW 051755Z AUTO 27003KT 10SM CLR 15/00 A3009 RMK AO1
KFDW 051735Z AUTO 00000KT 10SM CLR 15/00 A3010 RMK AO1
KFDW 051715Z AUTO 00000KT 10SM CLR 15/M01 A3010 RMK AO1
KFDW 051655Z AUTO 00000KT 10SM CLR 14/00 A3011 RMK AO1
KFDW 051635Z AUTO 31004KT 10SM CLR 13/00 A3011 RMK AO1
KFDW 051615Z AUTO 00000KT 10SM CLR 13/M01 A3011 RMK AO1
KFDW 051555Z AUTO 35004KT 10SM CLR 12/M01 A3011 RMK AO1
KFDW 051535Z AUTO 32004KT 10SM CLR 12/M01 A3010 RMK AO1
KFDW 051515Z AUTO 29003KT 10SM CLR 12/M01 A3009 RMK AO1
KFDW 051455Z AUTO 31004KT 10SM CLR 11/00 A3008 RMK AO1
KFDW 051435Z AUTO 00000KT 10SM CLR 10/00 A3007 RMK AO1
KFDW 051415Z AUTO 00000KT 10SM CLR 09/00 A3006 RMK AO1
KFDW 051355Z AUTO 00000KT 10SM CLR 07/00 A3005 RMK AO1
KFDW 051335Z AUTO 00000KT 10SM CLR 06/00 A3004 RMK AO1
KFDW 051315Z AUTO 00000KT 10SM CLR 05/00 A3003 RMK AO1
KFDW 051255Z AUTO 00000KT 10SM CLR 06/00 A3002 RMK AO1
KFDW 051235Z AUTO 30004KT 10SM CLR 06/00 A3001 RMK AO1
KFDW 051215Z AUTO 31003KT 10SM CLR 06/00 A3000 RMK AO1
KFDW 051155Z AUTO 32005KT 10SM CLR 06/00 A2999 RMK AO1
KFDW 051135Z AUTO 31006KT 10SM CLR 07/M01 A2999 RMK AO1
KFDW 051115Z AUTO 30007KT 10SM CLR 07/00 A2998 RMK AO1
KFDW 051055Z AUTO 29007KT 10SM CLR 07/00 A2998 RMK AO1
KFDW 051035Z AUTO 28005KT 10SM CLR 06/00 A2996 RMK AO1
KFDW 051015Z AUTO 27005KT 10SM CLR 06/00 A2995 RMK AO1
KFDW 050955Z AUTO 26004KT 10SM CLR 07/00 A2994 RMK AO1
KFDW 050935Z AUTO 26003KT 10SM CLR 07/00 A2993 RMK AO1
KFDW 050915Z AUTO 26004KT 10SM CLR 07/00 A2993 RMK AO1
KFDW 050855Z AUTO 26004KT 10SM CLR 07/00 A2992 RMK AO1
KFDW 050835Z AUTO 27004KT 10SM CLR 08/00 A2990 RMK AO1
KFDW 050815Z AUTO 25006KT 10SM CLR 08/00 A2989 RMK AO1
KFDW 050755Z AUTO 27005KT 10SM CLR 08/00 A2989 RMK AO1
KFDW 050735Z AUTO 24006KT 10SM CLR 08/00 A2988 RMK AO1
KFDW 050715Z AUTO 25005KT 10SM CLR 08/00 A2987 RMK AO1
KFDW 050655Z AUTO 25005KT 10SM CLR 08/00 A2987 RMK AO1
KFDW 050635Z AUTO 25005KT 10SM CLR 08/M01 A2986 RMK AO1
KFDW 050615Z AUTO 25006KT 10SM CLR 08/M01 A2986 RMK AO1
KFDW 050555Z AUTO 25006KT 10SM CLR 08/M01 A2985 RMK AO1
KFDW 050535Z AUTO 24006KT 10SM CLR 08/M01 A2986 RMK AO1
KFDW 050515Z AUTO 26004KT 10SM CLR 08/M01 A2987 RMK AO1
KFDW 050455Z AUTO 26006KT 10SM CLR 07/M01 A2987 RMK AO1
KFDW 050435Z AUTO 24006KT 10SM CLR 07/00 A2986 RMK AO1
KFDW 050415Z AUTO 24005KT 10SM CLR 07/00 A2985 RMK AO1
KFDW 050355Z AUTO 25005KT 10SM CLR 07/00 A2985 RMK AO1
KFDW 050335Z AUTO 25005KT 10SM CLR 07/00 A2985 RMK AO1
KFDW 050315Z AUTO 24004KT 10SM CLR 08/00 A2985 RMK AO1
KFDW 050255Z AUTO 24004KT 10SM CLR 08/00 A2984 RMK AO1
KFDW 050235Z AUTO 25004KT 10SM CLR 08/00 A2984 RMK AO1
KFDW 050215Z AUTO 24003KT 10SM CLR 08/00 A2983 RMK AO1
KFDW 050155Z AUTO 24005KT 10SM CLR 09/00 A2983 RMK AO1
KFDW 050135Z AUTO 24004KT 10SM CLR 09/00 A2982 RMK AO1
KFDW 050115Z AUTO 24004KT 10SM CLR 10/00 A2981 RMK AO1
KFDW 050055Z AUTO 24004KT 10SM CLR 10/00 A2981 RMK AO1
KFDW 050015Z AUTO 22005KT 10SM CLR 11/00 A2980 RMK AO1
KFDW 042355Z AUTO 23005KT 10SM CLR 11/00 A2980 RMK AO1
KFDW 042335Z AUTO 22005KT 10SM CLR 11/00 A2979 RMK AO1
KFDW 042315Z AUTO 23004KT 10SM CLR 11/00 A2979 RMK AO1
KFDW 042255Z AUTO 24003KT 10SM CLR 12/00 A2978 RMK AO1
KFDW 042235Z AUTO 24004KT 10SM CLR 12/00 A2978 RMK AO1
KFDW 042215Z AUTO 24004KT 10SM CLR 13/00 A2976 RMK AO1
KFDW 042155Z AUTO 24004KT 10SM CLR 14/00 A2976 RMK AO1
KFDW 042135Z AUTO 28008KT 10SM CLR 15/00 A2976 RMK AO1
KFDW 042115Z AUTO 28008KT 10SM CLR 15/00 A2976 RMK AO1
KFDW 042055Z AUTO 28008G16KT 10SM CLR 15/00 A2976 RMK AO1
KFDW 042035Z AUTO 26005KT 10SM CLR 15/00 A2976 RMK AO1
KFDW 042015Z AUTO 25007KT 204V294 10SM CLR 15/00 A2975 RMK AO1
KFDW 041955Z AUTO 27006KT 10SM CLR 15/00 A2975 RMK AO1
KFDW 041935Z AUTO 26007G14KT 10SM CLR 14/00 A2976 RMK AO1
KFDW 041915Z AUTO 27007G14KT 244V334 10SM CLR 14/00 A2975 RMK AO1
KFDW 041855Z AUTO 23008KT 10SM CLR 13/M01 A2976 RMK AO1
KFDW 041835Z AUTO 27006KT 10SM CLR 13/M01 A2976 RMK AO1
KFDW 041815Z AUTO 25006KT 10SM CLR 13/M01 A2976 RMK AO1
KFDW 041755Z AUTO 22008KT 10SM CLR 13/M02 A2976 RMK AO1
KFDW 041735Z AUTO 22009KT 10SM CLR 12/M02 A2978 RMK AO1
KFDW 041715Z AUTO 20008KT 10SM CLR 12/M02 A2978 RMK AO1
KFDW 041655Z AUTO 21008KT 10SM CLR 11/M01 A2980 RMK AO1
KFDW 041635Z AUTO 26005KT 10SM CLR 11/M01 A2981 RMK AO1
KFDW 041615Z AUTO 00000KT 10SM CLR 10/00 A2982 RMK AO1
KFDW 041555Z AUTO 24003KT 10SM CLR 09/00 A2983 RMK AO1
KFDW 041535Z AUTO 26004KT 10SM CLR 09/00 A2983 RMK AO1
KFDW 041515Z AUTO 26004KT 10SM CLR 08/00 A2984 RMK AO1
KFDW 041455Z AUTO 00000KT 10SM CLR 07/01 A2983 RMK AO1
KFDW 041435Z AUTO 26004KT 10SM CLR 05/01 A2983 RMK AO1
KFDW 041415Z AUTO 28004KT 10SM CLR 04/01 A2984 RMK AO1
KFDW 041355Z AUTO 26003KT 10SM CLR 03/01 A2983 RMK AO1
KFDW 041335Z AUTO 00000KT 10SM CLR 02/01 A2981 RMK AO1